Time;durP1;ratioP1;P1;durP2;ratioP2;P2;SDS_P1;SDS_P2;PMS_P1;PMS_P2;Temp;Humidity;BMP_temperature;BMP_pressure;BME280_temperature;BME280_humidity;BME280_pressure;Samples;Min_cycle;Max_cycle;Signal;HPM_P1;HPM_P2
2021/12/14 00:00:36;;;;;;;;;;;4.80;99.90;;;3.82;100.00;96684.59;10424139;28;1986;-71
2021/12/14 00:05:40;;;;;;;;;;;4.80;99.90;;;3.72;100.00;96687.66;10421953;28;1854;-71
2021/12/14 00:11:09;;;;;;;;;;;4.80;99.90;;;3.75;100.00;96683.75;10418209;28;2005;-70
2021/12/14 00:16:12;;;;;;;;;;;4.80;99.90;;;3.69;100.00;96665.97;10426024;28;1843;-71
2021/12/14 00:21:19;;;;;;;;;;;4.80;99.90;;;3.46;100.00;96669.13;10424217;28;1891;-70
2021/12/14 00:26:23;;;;;;;;;;;4.60;99.90;;;3.57;100.00;96660.50;10424806;28;1836;-69
2021/12/14 00:31:26;;;;;;;;;;;4.60;99.90;;;3.48;100.00;96675.84;10425517;28;1997;-70
2021/12/14 00:36:30;;;;;;;;;;;4.70;99.90;;;3.55;100.00;96675.84;10416415;28;2387;-71
2021/12/14 00:41:33;;;;;;;;;;;4.50;99.90;;;3.50;100.00;96673.00;10421879;28;1900;-70
2021/12/14 00:46:37;;;;;;;;;;;4.70;99.90;;;3.35;100.00;96675.03;10425068;28;1924;-70
2021/12/14 00:51:40;;;;;;;;;;;4.50;99.90;;;3.47;100.00;96673.41;10425323;28;1979;-70
2021/12/14 00:56:43;;;;;;;;;;;4.50;99.90;;;3.46;100.00;96667.28;10417019;28;1835;-70
2021/12/14 01:01:46;;;;;;;;;;;4.50;99.90;;;3.47;100.00;96668.09;10418789;28;1797;-70
2021/12/14 01:06:50;;;;;;;;;;;4.50;99.90;;;3.37;100.00;96665.03;10423347;28;1844;-69
2021/12/14 01:11:53;;;;;;;;;;;4.50;99.90;;;3.28;100.00;96668.94;10431500;28;1914;-69
2021/12/14 01:17:08;;;;;;;;;;;4.40;99.90;;;3.24;100.00;96669.34;10422578;28;1881;-70
2021/12/14 01:22:20;;;;;;;;;;;4.40;99.90;;;3.39;100.00;96666.47;10430863;28;2274;-70
2021/12/14 01:27:22;;;;;;;;;;;4.40;99.90;;;3.45;100.00;96678.13;10427505;28;1868;-70
2021/12/14 01:32:29;;;;;;;;;;;4.40;99.90;;;3.33;100.00;96682.41;10434485;28;1980;-70
2021/12/14 01:37:40;;;;;;;;;;;4.50;99.90;;;3.12;100.00;96689.59;10432703;28;1865;-71
2021/12/14 01:42:43;;;;;;;;;;;4.40;99.90;;;3.33;100.00;96701.84;10434204;28;2178;-71
2021/12/14 01:47:46;;;;;;;;;;;4.30;99.90;;;3.23;100.00;96696.91;10437519;28;1741;-71
2021/12/14 01:52:49;;;;;;;;;;;4.40;99.90;;;3.21;100.00;96691.00;10423901;28;1981;-70
2021/12/14 01:57:52;;;;;;;;;;;4.20;99.90;;;3.19;100.00;96690.41;10427278;28;1505;-71
2021/12/14 02:02:54;;;;;;;;;;;4.20;99.90;;;3.23;100.00;96691.59;10437858;28;2376;-69
2021/12/14 02:07:57;;;;;;;;;;;4.30;99.90;;;3.08;100.00;96680.38;10434036;28;2388;-71
2021/12/14 02:13:01;;;;;;;;;;;4.20;99.90;;;3.07;100.00;96686.72;10442657;28;2298;-72
2021/12/14 02:18:05;;;;;;;;;;;4.10;99.90;;;2.88;100.00;96708.75;10438010;28;2309;-71
2021/12/14 02:23:09;;;;;;;;;;;4.00;99.90;;;2.88;100.00;96701.59;10428351;28;2369;-71
2021/12/14 02:28:17;;;;;;;;;;;4.00;99.90;;;2.87;100.00;96699.16;10420523;28;1532;-69
2021/12/14 02:33:23;;;;;;;;;;;3.90;99.90;;;2.70;100.00;96685.44;10433947;28;2016;-70
2021/12/14 02:38:47;;;;;;;;;;;3.80;99.90;;;2.72;100.00;96683.41;10420393;28;1964;-70
2021/12/14 02:43:51;;;;;;;;;;;3.70;99.90;;;2.74;100.00;96689.34;10426692;28;1995;-69
2021/12/14 02:48:54;;;;;;;;;;;3.70;99.90;;;2.60;100.00;96683.16;10434824;28;1964;-70
2021/12/14 02:53:57;;;;;;;;;;;3.60;99.90;;;2.55;100.00;96675.00;10431896;28;1540;-70
2021/12/14 02:58:59;;;;;;;;;;;3.60;99.90;;;2.59;100.00;96675.41;10425410;28;2011;-69
2021/12/14 03:04:02;;;;;;;;;;;3.50;99.90;;;2.56;100.00;96676.63;10423098;28;2011;-70
2021/12/14 03:09:17;;;;;;;;;;;3.50;99.90;;;2.56;100.00;96666.03;10422750;28;1949;-69
2021/12/14 03:14:19;;;;;;;;;;;3.60;99.90;;;2.62;100.00;96667.06;10430035;28;2091;-69
2021/12/14 03:19:22;;;;;;;;;;;3.60;99.90;;;2.62;100.00;96669.72;10424035;28;1968;-70
2021/12/14 03:24:25;;;;;;;;;;;3.70;99.90;;;2.54;100.00;96676.00;10427449;28;1977;-70
2021/12/14 03:29:28;;;;;;;;;;;3.50;99.90;;;2.36;100.00;96686.38;10425675;28;1989;-69
2021/12/14 03:34:31;;;;;;;;;;;3.40;99.90;;;2.19;100.00;96682.44;10424207;28;2013;-70
2021/12/14 03:39:34;;;;;;;;;;;3.30;99.90;;;2.30;100.00;96682.69;10427948;28;1979;-70
2021/12/14 03:44:37;;;;;;;;;;;3.30;99.90;;;2.31;100.00;96678.22;10428427;28;2079;-71
2021/12/14 03:49:40;;;;;;;;;;;3.20;99.90;;;2.24;100.00;96669.41;10427843;28;2201;-70
2021/12/14 03:54:43;;;;;;;;;;;3.30;99.90;;;2.25;100.00;96676.34;10424890;28;2356;-71
2021/12/14 03:59:46;;;;;;;;;;;3.40;99.90;;;2.09;100.00;96682.81;10421728;28;2423;-71
2021/12/14 04:04:52;;;;;;;;;;;3.20;99.90;;;2.09;100.00;96680.97;10430616;28;2119;-69
2021/12/14 04:09:55;;;;;;;;;;;3.10;99.90;;;2.06;100.00;96673.41;10420666;28;1964;-70
2021/12/14 04:14:57;;;;;;;;;;;3.00;99.90;;;2.19;100.00;96672.66;10421813;28;1976;-70
2021/12/14 04:20:20;;;;;;;;;;;3.20;99.90;;;2.21;100.00;96664.50;10425410;28;1917;-69
2021/12/14 04:25:43;;;;;;;;;;;3.20;99.90;;;2.30;100.00;96668.63;10418979;28;1945;-70
2021/12/14 04:30:46;;;;;;;;;;;3.20;99.90;;;2.20;100.00;96662.84;10422107;28;1992;-69
2021/12/14 04:35:49;;;;;;;;;;;3.20;99.90;;;2.30;100.00;96663.31;10418349;28;1980;-69
2021/12/14 04:56:53;;;;;;;;;;;3.40;99.90;;;2.36;100.00;96634.13;10435092;28;1941;-69
2021/12/14 05:01:55;;;;;;;;;;;3.40;99.90;;;2.24;100.00;96648.19;10441554;28;2004;-70
2021/12/14 05:07:25;;;;;;;;;;;3.30;99.90;;;2.22;100.00;96651.00;10427528;28;1881;-69
2021/12/14 05:12:22;;;;;;;;;;;3.30;99.90;;;2.27;100.00;96642.47;10430175;28;2011;-70
2021/12/14 05:17:24;;;;;;;;;;;3.30;99.90;;;2.19;100.00;96642.66;10426823;28;2068;-69
2021/12/14 05:22:27;;;;;;;;;;;3.30;99.90;;;2.15;100.00;96648.34;10435645;28;1961;-71
2021/12/14 05:27:31;;;;;;;;;;;3.20;99.90;;;2.08;100.00;96657.31;10435931;28;2070;-71
2021/12/14 05:32:34;;;;;;;;;;;3.20;99.90;;;2.09;100.00;96662.41;10430696;28;1922;-71
2021/12/14 05:37:44;;;;;;;;;;;3.20;99.90;;;2.04;100.00;96656.91;10435283;28;2056;-71
2021/12/14 05:48:07;;;;;;;;;;;3.00;99.90;;;2.02;100.00;96635.03;10431920;28;2008;-70
2021/12/14 05:53:10;;;;;;;;;;;3.00;99.90;;;2.11;100.00;96636.50;10422899;28;1929;-70
2021/12/14 05:58:13;;;;;;;;;;;3.10;99.90;;;1.98;100.00;96641.78;10426660;28;1861;-70
2021/12/14 06:03:16;;;;;;;;;;;3.10;99.90;;;1.98;100.00;96636.47;10426447;28;2015;-69
2021/12/14 06:08:18;;;;;;;;;;;3.10;99.90;;;1.97;100.00;96641.94;10436072;28;1916;-70
2021/12/14 06:13:21;;;;;;;;;;;3.10;99.90;;;1.90;100.00;96634.78;10459159;28;1995;-70
2021/12/14 06:18:24;;;;;;;;;;;3.00;99.90;;;1.90;100.00;96626.00;10439404;28;2201;-70
2021/12/14 06:23:28;;;;;;;;;;;2.90;99.90;;;1.80;100.00;96618.44;10430066;28;1947;-69
2021/12/14 06:28:31;;;;;;;;;;;2.90;99.90;;;1.67;100.00;96615.75;10450616;28;2045;-72
2021/12/14 06:33:34;;;;;;;;;;;2.80;99.90;;;1.53;100.00;96614.88;10447519;28;2032;-69
2021/12/14 06:38:37;;;;;;;;;;;2.70;99.90;;;1.37;100.00;96615.16;10446608;28;1926;-70
2021/12/14 06:43:40;;;;;;;;;;;2.60;99.90;;;1.35;100.00;96620.66;10435384;28;2035;-73
2021/12/14 06:48:43;;;;;;;;;;;2.50;99.90;;;1.24;100.00;96609.78;10435959;28;1936;-73
2021/12/14 06:53:49;;;;;;;;;;;2.50;99.90;;;1.15;100.00;96605.69;10434847;28;1960;-72
2021/12/14 06:58:52;;;;;;;;;;;2.40;99.90;;;1.16;100.00;96602.00;10450790;28;1967;-72
2021/12/14 07:03:56;;;;;;;;;;;2.30;99.90;;;1.14;100.00;96604.00;10437787;28;1960;-74
2021/12/14 07:08:59;;;;;;;;;;;2.30;99.90;;;1.20;100.00;96608.53;10446332;28;1904;-73
2021/12/14 07:14:03;;;;;;;;;;;2.30;99.90;;;1.36;100.00;96597.66;10441576;28;2003;-73
2021/12/14 07:19:06;;;;;;;;;;;2.30;99.90;;;1.41;100.00;96603.19;10450666;28;1952;-73
2021/12/14 07:24:09;;;;;;;;;;;2.40;99.90;;;1.55;100.00;96604.88;10450294;28;2042;-73
2021/12/14 07:29:11;;;;;;;;;;;2.50;99.90;;;1.66;100.00;96608.00;10443813;28;1886;-73
2021/12/14 07:34:15;;;;;;;;;;;2.70;99.90;;;1.73;100.00;96614.13;10436392;28;1977;-74
2021/12/14 07:39:18;;;;;;;;;;;2.70;99.90;;;1.70;100.00;96620.63;10426887;28;2372;-72
2021/12/14 07:44:21;;;;;;;;;;;2.70;99.90;;;1.59;100.00;96635.28;10429216;28;1963;-74
2021/12/14 07:49:24;;;;;;;;;;;2.60;99.90;;;1.63;100.00;96647.09;10441940;28;1849;-72
2021/12/14 07:54:27;;;;;;;;;;;2.60;99.90;;;1.67;100.00;96641.44;10435750;28;1989;-71
2021/12/14 07:59:33;;;;;;;;;;;2.50;99.90;;;1.55;100.00;96646.47;10428846;28;2031;-72
2021/12/14 08:04:36;;;;;;;;;;;2.50;99.90;;;1.52;100.00;96650.31;10427123;28;1995;-71
2021/12/14 08:09:46;;;;;;;;;;;2.50;99.90;;;1.30;100.00;96656.69;10426133;28;1772;-70
2021/12/14 08:14:49;;;;;;;;;;;2.40;99.90;;;1.21;100.00;96668.44;10435867;28;1922;-70
2021/12/14 08:19:53;;;;;;;;;;;2.20;99.90;;;1.29;100.00;96660.38;10436921;28;1825;-72
2021/12/14 08:24:56;;;;;;;;;;;2.20;99.90;;;1.71;100.00;96640.00;10431504;28;1826;-77
2021/12/14 08:29:59;;;;;;;;;;;2.40;99.90;;;2.21;100.00;96632.66;10432234;28;1940;-76
2021/12/14 08:35:02;;;;;;;;;;;2.80;99.90;;;2.20;100.00;96641.63;10428413;28;1830;-74
2021/12/14 08:40:05;;;;;;;;;;;3.00;99.90;;;2.61;100.00;96645.00;10429813;28;1783;-75
2021/12/14 08:45:25;;;;;;;;;;;3.20;99.90;;;3.16;100.00;96640.31;10429082;28;1937;-76
2021/12/14 08:50:28;;;;;;;;;;;3.50;99.90;;;3.24;100.00;96650.75;10424334;28;1985;-74
2021/12/14 08:55:32;;;;;;;;;;;3.90;99.90;;;3.62;100.00;96618.13;10419249;28;1843;-75
2021/12/14 09:00:35;;;;;;;;;;;4.00;99.90;;;3.48;100.00;96611.22;10421361;28;1863;-76
2021/12/14 09:05:38;;;;;;;;;;;4.30;99.90;;;3.86;100.00;96605.19;10420754;28;1811;-76
2021/12/14 09:10:40;;;;;;;;;;;4.50;99.90;;;3.91;100.00;96610.69;10424257;28;1914;-75
2021/12/14 09:15:44;;;;;;;;;;;4.60;99.90;;;4.02;100.00;96615.38;10415953;28;1847;-76
2021/12/14 09:20:46;;;;;;;;;;;4.70;99.90;;;4.00;100.00;96601.44;10417118;28;1912;-75
2021/12/14 09:25:49;;;;;;;;;;;4.80;99.90;;;4.23;100.00;96577.78;10430512;28;1905;-74
2021/12/14 09:30:53;;;;;;;;;;;5.00;99.90;;;4.12;100.00;96583.78;10426469;28;2007;-74
2021/12/14 09:35:57;;;;;;;;;;;5.00;99.90;;;4.79;100.00;96589.50;10440025;28;1898;-74
2021/12/14 09:41:00;;;;;;;;;;;5.30;99.90;;;5.13;99.32;96575.66;10430821;28;1908;-77
2021/12/14 09:46:08;;;;;;;;;;;5.60;99.90;;;5.75;96.32;96567.63;10435694;28;1876;-75
2021/12/14 09:51:11;;;;;;;;;;;6.00;99.90;;;6.00;94.46;96564.09;10425290;28;1909;-74
2021/12/14 09:56:19;;;;;;;;;;;6.40;99.90;;;5.81;94.63;96564.06;10427998;28;1878;-73
2021/12/14 10:01:22;;;;;;;;;;;6.60;99.90;;;5.60;94.89;96575.22;10435698;28;1946;-72
2021/12/14 10:06:29;;;;;;;;;;;6.60;99.90;;;5.50;96.81;96574.91;10439167;28;1925;-76
2021/12/14 10:11:41;;;;;;;;;;;6.50;99.90;;;5.09;100.00;96592.31;10436968;28;1969;-76
2021/12/14 10:16:44;;;;;;;;;;;6.10;99.90;;;4.82;100.00;96578.41;10434731;28;1969;-76
2021/12/14 10:21:47;;;;;;;;;;;5.90;99.90;;;4.80;100.00;96569.81;10431464;28;1842;-71
2021/12/14 10:26:50;;;;;;;;;;;5.70;99.90;;;4.61;100.00;96582.25;10420979;28;1893;-71
2021/12/14 10:31:53;;;;;;;;;;;5.70;99.90;;;4.57;100.00;96583.69;10437710;28;1983;-69
2021/12/14 10:37:02;;;;;;;;;;;5.60;99.90;;;4.88;100.00;96582.84;10456148;28;1896;-71
2021/12/14 10:47:25;;;;;;;;;;;5.90;99.90;;;5.59;99.96;96568.22;10432946;28;2107;-69
2021/12/14 10:52:28;;;;;;;;;;;6.30;99.90;;;5.73;99.61;96567.06;10436931;28;1910;-70
2021/12/14 10:57:31;;;;;;;;;;;6.40;99.90;;;5.75;98.78;96572.16;10421484;28;1955;-70
2021/12/14 11:02:41;;;;;;;;;;;6.50;99.90;;;5.68;98.71;96582.91;10426611;28;1838;-70
2021/12/14 11:07:45;;;;;;;;;;;6.60;99.90;;;5.49;99.67;96592.75;10432760;28;1847;-68
2021/12/14 11:12:48;;;;;;;;;;;6.50;99.90;;;5.21;99.47;96598.53;10424730;28;1910;-68
2021/12/14 11:18:11;;;;;;;;;;;6.30;99.90;;;5.19;100.00;96589.97;10429659;28;1842;-70
2021/12/14 11:23:14;;;;;;;;;;;6.10;99.90;;;5.33;100.00;96602.13;10427286;28;1913;-69
2021/12/14 11:28:17;;;;;;;;;;;6.20;99.90;;;5.39;99.65;96589.75;10428617;28;2285;-69
2021/12/14 11:33:20;;;;;;;;;;;6.30;99.90;;;5.55;99.12;96580.38;10425634;28;1918;-69
2021/12/14 11:38:24;;;;;;;;;;;6.50;99.90;;;5.36;100.00;96577.69;10419927;28;1787;-69
2021/12/14 11:43:27;;;;;;;;;;;6.40;99.90;;;5.51;100.00;96581.84;10419152;28;1963;-69
2021/12/14 11:48:30;;;;;;;;;;;6.40;99.90;;;5.62;99.14;96586.47;10420979;28;1795;-70
2021/12/14 11:53:33;;;;;;;;;;;6.40;99.90;;;5.65;98.59;96583.34;10437353;28;1922;-69
2021/12/14 11:58:38;;;;;;;;;;;6.50;99.90;;;5.57;98.41;96575.63;10420243;28;1979;-70
2021/12/14 12:03:41;;;;;;;;;;;6.50;99.90;;;5.68;97.62;96577.56;10421246;28;2193;-70
2021/12/14 12:14:05;;;;;;;;;;;6.50;99.90;;;6.11;95.43;96582.00;10426423;28;1914;-70
2021/12/14 12:19:08;;;;;;;;;;;6.80;99.90;;;6.27;94.55;96576.03;10427121;28;1888;-69
2021/12/14 12:24:11;;;;;;;;;;;6.90;99.90;;;6.24;93.99;96581.84;10428684;28;1868;-70
2021/12/14 12:29:17;;;;;;;;;;;7.00;99.90;;;6.03;94.95;96588.44;10420374;28;1902;-70
2021/12/14 12:34:20;;;;;;;;;;;7.00;99.90;;;6.08;97.06;96593.13;10428931;28;1983;-68
2021/12/14 12:39:27;;;;;;;;;;;6.90;99.90;;;6.05;96.02;96597.06;10420483;28;1831;-70
2021/12/14 12:44:33;;;;;;;;;;;6.90;99.90;;;5.85;97.15;96589.28;10436059;28;1819;-69
2021/12/14 12:49:36;;;;;;;;;;;6.80;99.90;;;5.93;97.20;96580.19;10429547;28;1766;-69
2021/12/14 12:54:40;;;;;;;;;;;6.70;99.90;;;6.35;95.32;96574.88;10427016;28;1910;-69
2021/12/14 12:59:43;;;;;;;;;;;7.00;99.90;;;6.39;94.85;96576.06;10423459;28;1906;-68
2021/12/14 13:04:46;;;;;;;;;;;7.20;99.90;;;6.43;94.04;96562.03;10420530;28;1920;-70
2021/12/14 13:09:49;;;;;;;;;;;;;;;6.60;93.38;96561.38;10415111;28;1845;-67
2021/12/14 13:14:53;;;;;;;;;;;;;;;6.72;94.46;96563.03;10433641;28;1917;-68
2021/12/14 13:19:56;;;;;;;;;;;;;;;6.62;93.53;96554.78;10429075;28;1863;-70
2021/12/14 13:25:00;;;;;;;;;;;;;;;6.52;94.03;96545.69;10437040;22;1985;-78
2021/12/14 13:30:05;;;;;;;;;;;;;;;6.42;93.13;96551.56;10397872;28;1814;-77
2021/12/14 13:35:09;;;;;;;;;;;;;;;6.54;94.24;96565.78;10387897;28;1902;-78
2021/12/14 13:40:13;;;;;;;;;;;;;;;6.54;94.52;96584.47;10437527;22;3743;-76
2021/12/14 13:45:17;;;;;;;;;;;;;;;6.47;94.90;96592.56;10403400;28;1912;-77
2021/12/14 13:50:20;;;;;;;;;;;;;;;6.40;93.56;96596.38;10395144;28;1811;-78
2021/12/14 13:55:24;;;;;;;;;;;;;;;6.27;93.35;96583.22;10399468;28;1882;-72
2021/12/14 14:00:28;;;;;;;;;;;;;;;6.29;94.84;96576.59;10416078;28;1900;-73
2021/12/14 14:05:32;;;;;;;;;;;;;;;6.34;94.46;96570.59;10409633;28;1825;-74
2021/12/14 14:10:35;;;;;;;;;;;;;;;6.49;94.51;96571.81;10403555;28;1499;-73
2021/12/14 14:15:39;;;;;;;;;;;;;;;6.41;94.10;96577.47;10420531;28;1973;-73
2021/12/14 14:20:43;;;;;;;;;;;;;;;6.30;93.40;96578.25;10403718;28;1903;-73
2021/12/14 14:25:47;;;;;;;;;;;;;;;6.16;92.82;96584.78;10400522;28;2305;-73
2021/12/14 14:30:51;;;;;;;;;;;;;;;5.97;95.24;96584.81;10395218;28;1848;-74
2021/12/14 14:35:55;;;;;;;;;;;;;;;5.93;96.05;96589.00;10398164;28;1973;-74
2021/12/14 14:40:58;;;;;;;;;;;;;;;5.75;97.09;96594.31;10396751;28;1859;-74
2021/12/14 14:46:02;;;;;;;;;;;;;;;5.70;98.66;96602.16;10396824;28;1867;-74
2021/12/14 14:51:05;;;;;;;;;;;6.70;99.90;;;5.71;99.56;96606.44;10389815;28;1911;-78
2021/12/14 14:56:08;;;;;;;;;;;6.70;99.90;;;5.52;99.34;96610.16;10392623;28;1984;-77
2021/12/14 15:01:11;;;;;;;;;;;6.50;99.90;;;5.55;100.00;96607.06;10392532;28;1818;-76
2021/12/14 15:06:15;;;;;;;;;;;;;;;5.35;100.00;96607.25;10418033;28;1831;-75
2021/12/14 15:11:21;;;;;;;;;;;;;;;5.17;100.00;96605.38;10387013;28;1905;-73
2021/12/14 15:16:25;;;;;;;;;;;;;;;5.00;100.00;96618.41;10391445;28;1954;-75
2021/12/14 15:21:29;;;;;;;;;;;;;;;4.78;100.00;96609.19;10393368;28;2234;-75
2021/12/14 15:26:33;;;;;;;;;;;;;;;4.76;100.00;96619.22;10392708;28;1877;-76
2021/12/14 15:31:36;;;;;;;;;;;;;;;4.78;100.00;96630.50;10396512;28;1866;-77
2021/12/14 15:36:39;;;;;;;;;;;;;;;4.86;100.00;96623.03;10393760;28;1993;-77
2021/12/14 15:41:43;;;;;;;;;;;;;;;4.96;100.00;96632.38;10392976;28;1931;-76
2021/12/14 15:46:46;;;;;;;;;;;;;;;4.94;100.00;96637.13;10392987;28;1765;-77
2021/12/14 15:51:49;;;;;;;;;;;;;;;4.91;100.00;96634.91;10397233;28;1875;-75
2021/12/14 15:56:53;;;;;;;;;;;;;;;4.93;100.00;96643.50;10404288;28;1918;-76
2021/12/14 16:01:56;;;;;;;;;;;;;;;4.99;100.00;96666.59;10387843;28;1885;-75
2021/12/14 16:07:00;;;;;;;;;;;;;;;5.04;100.00;96666.78;10396685;28;1859;-75
2021/12/14 16:17:25;;;;;;;;;;;;;;;4.96;100.00;96685.66;10397633;28;1845;-77
2021/12/14 16:22:28;;;;;;;;;;;;;;;4.88;100.00;96679.56;10407621;28;1865;-76
2021/12/14 16:27:32;;;;;;;;;;;;;;;4.44;100.00;96693.75;10404085;28;1878;-78
2021/12/14 16:32:37;;;;;;;;;;;;;;;4.41;100.00;96683.56;10407965;28;1966;-76
2021/12/14 16:37:41;;;;;;;;;;;;;;;4.43;100.00;96686.00;10415880;28;1822;-76
2021/12/14 16:42:45;;;;;;;;;;;;;;;4.32;100.00;96679.47;10419503;28;1808;-77
2021/12/14 16:47:49;;;;;;;;;;;;;;;4.27;100.00;96677.47;10408890;28;1917;-77
2021/12/14 16:52:52;;;;;;;;;;;;;;;4.16;100.00;96679.97;10419273;28;2209;-77
2021/12/14 16:57:55;;;;;;;;;;;;;;;4.02;100.00;96688.00;10423148;28;1960;-78
2021/12/14 17:03:00;;;;;;;;;;;;;;;4.16;100.00;96679.97;10409440;28;1850;-76
2021/12/14 17:08:04;;;;;;;;;;;;;;;4.11;100.00;96680.59;10428358;28;1875;-78
2021/12/14 17:13:09;;;;;;;;;;;;;;;3.97;100.00;96682.50;10426694;28;1924;-77
2021/12/14 17:18:12;;;;;;;;;;;5.00;99.90;;;4.01;100.00;96690.88;10420161;28;1817;-77
2021/12/14 17:23:17;;;;;;;;;;;5.10;99.90;;;4.09;100.00;96688.00;10418369;28;2001;-77
2021/12/14 17:28:20;;;;;;;;;;;;;;;4.07;100.00;96693.53;10422363;28;1813;-77
2021/12/14 17:33:24;;;;;;;;;;;;;;;4.12;100.00;96689.41;10416889;28;2016;-77
2021/12/14 17:38:29;;;;;;;;;;;;;;;3.92;100.00;96690.28;10412326;28;1852;-77
2021/12/14 17:43:33;;;;;;;;;;;5.00;99.90;;;3.88;100.00;96688.25;10405537;28;1879;-76
2021/12/14 17:48:37;;;;;;;;;;;5.00;99.90;;;4.01;100.00;96698.88;10398259;28;1964;-75
2021/12/14 17:53:41;;;;;;;;;;;5.00;99.90;;;3.99;100.00;96714.19;10393761;28;1922;-75
2021/12/14 17:58:44;;;;;;;;;;;5.00;99.90;;;3.97;100.00;96713.59;10403894;28;1863;-78
2021/12/14 18:03:47;;;;;;;;;;;5.00;99.90;;;3.99;100.00;96711.53;10415873;28;1851;-76
2021/12/14 18:08:50;;;;;;;;;;;5.00;99.90;;;4.04;100.00;96725.03;10398174;28;1784;-76
2021/12/14 18:13:58;;;;;;;;;;;5.00;99.90;;;4.03;100.00;96716.25;10387356;28;1918;-75
2021/12/14 18:19:05;;;;;;;;;;;5.10;99.90;;;4.02;100.00;96711.13;10388526;28;1837;-79
2021/12/14 18:24:07;;;;;;;;;;;5.10;99.90;;;3.96;100.00;96730.59;10410793;28;1828;-78
2021/12/14 18:29:10;;;;;;;;;;;5.00;99.90;;;3.74;100.00;96730.81;10409751;28;1824;-78
2021/12/14 18:34:13;;;;;;;;;;;4.90;99.90;;;3.67;100.00;96745.97;10399407;28;1977;-77
2021/12/14 18:39:18;;;;;;;;;;;4.70;99.90;;;3.57;100.00;96745.59;10399468;28;1876;-78
2021/12/14 18:44:21;;;;;;;;;;;4.60;99.90;;;3.55;100.00;96747.59;10402011;28;1867;-78
2021/12/14 18:49:40;;;;;;;;;;;4.60;99.90;;;3.58;100.00;96746.41;10416253;28;1859;-79
2021/12/14 18:54:44;;;;;;;;;;;4.60;99.90;;;3.35;100.00;96736.16;10406999;28;1910;-78
2021/12/14 18:59:48;;;;;;;;;;;4.50;99.90;;;3.37;100.00;96734.97;10402479;28;1907;-79
2021/12/14 19:04:51;;;;;;;;;;;4.40;99.90;;;3.43;100.00;96743.94;10397896;28;1822;-78
2021/12/14 19:09:57;;;;;;;;;;;4.50;99.90;;;3.52;100.00;96746.19;10395704;28;1843;-77
2021/12/14 19:15:00;;;;;;;;;;;4.70;99.90;;;3.47;100.00;96755.81;10406253;28;1914;-79
2021/12/14 19:20:04;;;;;;;;;;;4.50;99.90;;;3.63;100.00;96755.41;10392798;28;1854;-79
2021/12/14 19:25:13;;;;;;;;;;;4.60;99.90;;;3.62;100.00;96745.75;10397451;28;1930;-78
2021/12/14 19:30:16;;;;;;;;;;;4.60;99.90;;;3.62;100.00;96748.41;10391747;28;1853;-80
2021/12/14 19:35:19;;;;;;;;;;;4.60;99.90;;;3.42;100.00;96766.22;10395603;28;1918;-78
2021/12/14 19:40:22;;;;;;;;;;;4.50;99.90;;;3.46;100.00;96764.81;10388038;28;1872;-77
2021/12/14 19:45:25;;;;;;;;;;;4.50;99.90;;;3.44;100.00;96778.31;10394057;28;1909;-78
2021/12/14 19:50:28;;;;;;;;;;;4.50;99.90;;;3.35;100.00;96779.50;10392956;28;1666;-76
2021/12/14 19:55:33;;;;;;;;;;;4.40;99.90;;;3.33;100.00;96760.31;10388069;28;1960;-77
2021/12/14 20:00:48;;;;;;;;;;;4.40;99.90;;;3.44;100.00;96772.19;10391876;28;2008;-77
2021/12/14 20:05:51;;;;;;;;;;;4.40;99.90;;;3.40;100.00;96776.25;10387338;28;1810;-76
2021/12/14 20:10:54;;;;;;;;;;;4.50;99.90;;;3.32;100.00;96779.13;10394555;28;1900;-77
2021/12/14 20:15:57;;;;;;;;;;;4.40;99.90;;;3.37;100.00;96781.97;10398357;28;1914;-77
2021/12/14 20:21:00;;;;;;;;;;;4.40;99.90;;;3.53;100.00;96784.22;10388790;28;1792;-78
2021/12/14 20:26:03;;;;;;;;;;;4.50;99.90;;;3.58;100.00;96784.44;10406798;28;1855;-77
2021/12/14 20:31:07;;;;;;;;;;;4.50;99.90;;;3.56;100.00;96778.47;10423330;28;1883;-78
2021/12/14 20:36:12;;;;;;;;;;;4.60;99.90;;;3.60;100.00;96782.38;10388678;28;1931;-77
2021/12/14 20:41:14;;;;;;;;;;;4.50;99.90;;;3.62;100.00;96785.66;10394387;28;1902;-78
2021/12/14 20:46:17;;;;;;;;;;;4.50;99.90;;;3.53;100.00;96787.69;10393934;28;1881;-79
2021/12/14 20:51:20;;;;;;;;;;;4.50;99.90;;;3.50;100.00;96800.59;10399781;28;1834;-79
2021/12/14 20:56:23;;;;;;;;;;;4.50;99.90;;;3.63;100.00;96811.25;10401646;28;1975;-80
2021/12/14 21:01:26;;;;;;;;;;;4.60;99.90;;;3.49;100.00;96802.41;10387572;28;1945;-79
2021/12/14 21:06:29;;;;;;;;;;;4.60;99.90;;;3.45;100.00;96816.34;10387571;28;1757;-78
2021/12/14 21:11:33;;;;;;;;;;;4.50;99.90;;;3.36;100.00;96828.16;10391955;28;1904;-78
2021/12/14 21:16:36;;;;;;;;;;;4.40;99.90;;;3.29;100.00;96827.34;10410634;28;1991;-78
2021/12/14 21:21:42;;;;;;;;;;;4.40;99.90;;;3.13;100.00;96824.03;10400305;28;1866;-80
2021/12/14 21:26:46;;;;;;;;;;;4.20;99.90;;;3.20;100.00;96835.50;10402625;28;2221;-79
2021/12/14 21:31:49;;;;;;;;;;;4.30;99.90;;;3.22;100.00;96825.50;10395199;28;1898;-80
2021/12/14 21:36:52;;;;;;;;;;;4.20;99.90;;;3.30;100.00;96824.47;10418771;28;2147;-80
2021/12/14 21:41:56;;;;;;;;;;;4.40;99.90;;;3.25;100.00;96817.13;10415396;28;1885;-78
2021/12/14 21:47:00;;;;;;;;;;;3.90;99.90;;;3.22;100.00;96828.16;10403284;28;2052;-80
2021/12/14 21:52:03;;;;;;;;;;;4.20;99.90;;;3.30;100.00;96823.66;10396152;28;2190;-77
2021/12/14 21:57:06;;;;;;;;;;;4.30;99.90;;;3.23;100.00;96829.78;10397809;28;2225;-80
2021/12/14 22:02:09;;;;;;;;;;;4.30;99.90;;;3.03;100.00;96828.09;10397620;28;2015;-73
2021/12/14 22:07:13;;;;;;;;;;;4.10;99.90;;;2.91;100.00;96827.84;10396404;28;1919;-73
2021/12/14 22:12:18;;;;;;;;;;;4.10;99.90;;;3.01;100.00;96830.16;10396932;28;1875;-76
2021/12/14 22:17:21;;;;;;;;;;;4.00;99.90;;;3.01;100.00;96830.97;10400686;28;2024;-75
2021/12/14 22:22:24;;;;;;;;;;;4.10;99.90;;;3.03;100.00;96844.84;10392190;28;1811;-76
2021/12/14 22:27:26;;;;;;;;;;;4.10;99.90;;;3.16;100.00;96844.88;10395370;28;1780;-76
2021/12/14 22:32:29;;;;;;;;;;;4.20;99.90;;;3.13;100.00;96842.66;10397548;28;1855;-75
2021/12/14 22:37:33;;;;;;;;;;;4.20;99.90;;;3.27;100.00;96842.69;10397749;28;1950;-75
2021/12/14 22:42:56;;;;;;;;;;;4.20;99.90;;;3.24;100.00;96839.41;10388111;28;1936;-73
2021/12/14 22:47:59;;;;;;;;;;;4.10;99.90;;;3.13;100.00;96831.19;10416214;28;1874;-73
2021/12/14 22:53:03;;;;;;;;;;;4.10;99.90;;;3.14;100.00;96841.63;10412883;28;1983;-74
2021/12/14 22:58:09;;;;;;;;;;;4.10;99.90;;;3.16;100.00;96834.25;10396846;28;1937;-74
2021/12/14 23:03:12;;;;;;;;;;;4.10;99.90;;;3.11;100.00;96846.50;10389579;28;1904;-74
2021/12/14 23:08:15;;;;;;;;;;;4.20;99.90;;;3.13;100.00;96845.31;10401369;28;1959;-74
2021/12/14 23:13:19;;;;;;;;;;;4.20;99.90;;;3.24;100.00;96836.75;10391767;28;1821;-74
2021/12/14 23:18:31;;;;;;;;;;;4.10;99.90;;;3.33;100.00;96844.53;10385547;28;1977;-74
2021/12/14 23:23:34;;;;;;;;;;;4.30;99.90;;;3.26;100.00;96847.16;10398617;28;1857;-74
2021/12/14 23:28:38;;;;;;;;;;;4.20;99.90;;;3.23;100.00;96851.03;10384168;28;1906;-74
2021/12/14 23:33:41;;;;;;;;;;;4.30;99.90;;;3.27;100.00;96856.78;10391100;28;2156;-72
2021/12/14 23:38:45;;;;;;;;;;;4.30;99.90;;;3.18;100.00;96845.53;10402540;28;1979;-72
2021/12/14 23:43:50;;;;;;;;;;;4.20;99.90;;;3.40;100.00;96840.03;10436587;22;3663;-72
2021/12/14 23:48:53;;;;;;;;;;;4.30;99.90;;;3.41;100.00;96839.00;10426967;28;2355;-72
2021/12/14 23:53:57;;;;;;;;;;;4.40;99.90;;;3.37;100.00;96832.44;10435937;28;1839;-71
2021/12/14 23:59:00;;;;;;;;;;;4.40;99.90;;;3.35;100.00;96837.16;10428724;28;1871;-71
